sensor_id;sensor_type;location;lat;lon;timestamp;P1;durP1;ratioP1;P2;durP2;ratioP2
49980;SDS011;35871;51.594;7.138;2024-01-25T06:43:39;8.15;;;2.42;;
49980;SDS011;35871;51.594;7.138;2024-01-25T06:48:40;8.02;;;2.58;;
49980;SDS011;35871;51.594;7.138;2024-01-25T06:53:41;11.88;;;2.67;;
49980;SDS011;35871;51.594;7.138;2024-01-25T06:58:42;7.43;;;2.20;;
49980;SDS011;35871;51.594;7.138;2024-01-25T07:03:43;10.23;;;3.30;;
49980;SDS011;35871;51.594;7.138;2024-01-25T07:08:44;6.45;;;2.28;;
49980;SDS011;35871;51.594;7.138;2024-01-25T07:13:45;10.02;;;3.60;;
49980;SDS011;35871;51.594;7.138;2024-01-25T07:18:46;9.23;;;3.30;;
49980;SDS011;35871;51.594;7.138;2024-01-25T07:28:48;11.95;;;4.18;;
49980;SDS011;35871;51.594;7.138;2024-01-25T07:38:50;9.48;;;2.92;;
49980;SDS011;35871;51.594;7.138;2024-01-25T07:48:55;7.70;;;2.95;;
49980;SDS011;35871;51.594;7.138;2024-01-25T07:58:57;8.80;;;2.83;;
49980;SDS011;35871;51.594;7.138;2024-01-25T08:04:00;9.00;;;3.10;;
49980;SDS011;35871;51.594;7.138;2024-01-25T08:14:02;15.07;;;5.85;;
49980;SDS011;35871;51.594;7.138;2024-01-25T08:24:04;18.85;;;6.22;;
49980;SDS011;35871;51.594;7.138;2024-01-25T08:34:06;16.65;;;5.85;;
49980;SDS011;35871;51.594;7.138;2024-01-25T08:39:07;15.63;;;5.43;;
49980;SDS011;35871;51.594;7.138;2024-01-25T08:49:09;14.55;;;5.10;;
49980;SDS011;35871;51.594;7.138;2024-01-25T08:54:12;15.65;;;5.38;;
49980;SDS011;35871;51.594;7.138;2024-01-25T09:04:14;16.35;;;6.43;;
49980;SDS011;35871;51.594;7.138;2024-01-25T09:09:15;16.58;;;6.53;;
49980;SDS011;35871;51.594;7.138;2024-01-25T09:19:17;9.93;;;4.40;;
49980;SDS011;35871;51.594;7.138;2024-01-25T09:24:18;13.82;;;6.28;;
49980;SDS011;35871;51.594;7.138;2024-01-25T09:29:20;12.95;;;5.50;;
49980;SDS011;35871;51.594;7.138;2024-01-25T09:39:22;12.82;;;4.93;;
49980;SDS011;35871;51.594;7.138;2024-01-25T09:44:23;13.57;;;5.10;;
49980;SDS011;35871;51.594;7.138;2024-01-25T09:49:24;14.80;;;5.50;;
49980;SDS011;35871;51.594;7.138;2024-01-25T09:54:25;17.13;;;7.00;;
49980;SDS011;35871;51.594;7.138;2024-01-25T09:59:27;14.73;;;5.35;;
49980;SDS011;35871;51.594;7.138;2024-01-25T10:04:28;16.77;;;6.13;;
49980;SDS011;35871;51.594;7.138;2024-01-25T10:09:40;11.73;;;5.38;;
49980;SDS011;35871;51.594;7.138;2024-01-25T10:14:42;13.77;;;5.40;;
49980;SDS011;35871;51.594;7.138;2024-01-25T10:19:43;11.77;;;5.25;;
49980;SDS011;35871;51.594;7.138;2024-01-25T10:24:45;11.68;;;5.18;;
49980;SDS011;35871;51.594;7.138;2024-01-25T10:29:46;13.00;;;5.13;;
49980;SDS011;35871;51.594;7.138;2024-01-25T10:34:47;22.48;;;7.78;;
49980;SDS011;35871;51.594;7.138;2024-01-25T10:39:49;11.40;;;4.57;;
49980;SDS011;35871;51.594;7.138;2024-01-25T10:44:54;14.10;;;5.82;;
49980;SDS011;35871;51.594;7.138;2024-01-25T10:50:04;26.98;;;8.80;;
49980;SDS011;35871;51.594;7.138;2024-01-25T10:55:05;13.23;;;5.72;;
49980;SDS011;35871;51.594;7.138;2024-01-25T11:00:16;16.08;;;6.20;;
49980;SDS011;35871;51.594;7.138;2024-01-25T11:05:22;13.18;;;4.60;;
49980;SDS011;35871;51.594;7.138;2024-01-25T11:10:24;12.70;;;4.95;;
49980;SDS011;35871;51.594;7.138;2024-01-25T11:15:32;12.50;;;4.75;;
49980;SDS011;35871;51.594;7.138;2024-01-25T11:20:34;13.10;;;5.75;;
49980;SDS011;35871;51.594;7.138;2024-01-25T11:25:36;12.18;;;5.00;;
49980;SDS011;35871;51.594;7.138;2024-01-25T11:30:46;13.13;;;5.15;;
49980;SDS011;35871;51.594;7.138;2024-01-25T11:35:56;12.63;;;5.45;;
49980;SDS011;35871;51.594;7.138;2024-01-25T11:40:57;16.23;;;5.70;;
49980;SDS011;35871;51.594;7.138;2024-01-25T11:45:59;20.08;;;6.95;;
49980;SDS011;35871;51.594;7.138;2024-01-25T11:51:00;18.15;;;6.75;;
49980;SDS011;35871;51.594;7.138;2024-01-25T11:56:01;11.40;;;5.20;;
49980;SDS011;35871;51.594;7.138;2024-01-25T12:01:03;21.27;;;8.18;;
49980;SDS011;35871;51.594;7.138;2024-01-25T12:06:08;10.88;;;4.50;;
49980;SDS011;35871;51.594;7.138;2024-01-25T12:11:10;17.52;;;7.45;;
49980;SDS011;35871;51.594;7.138;2024-01-25T12:16:11;14.43;;;6.03;;
49980;SDS011;35871;51.594;7.138;2024-01-25T12:21:13;14.20;;;5.18;;
49980;SDS011;35871;51.594;7.138;2024-01-25T12:26:14;15.15;;;6.07;;
49980;SDS011;35871;51.594;7.138;2024-01-25T12:31:16;14.20;;;5.32;;
49980;SDS011;35871;51.594;7.138;2024-01-25T12:36:17;12.27;;;4.90;;
49980;SDS011;35871;51.594;7.138;2024-01-25T12:41:18;16.75;;;6.03;;
49980;SDS011;35871;51.594;7.138;2024-01-25T12:46:19;13.40;;;4.95;;
49980;SDS011;35871;51.594;7.138;2024-01-25T12:51:21;20.40;;;8.77;;
49980;SDS011;35871;51.594;7.138;2024-01-25T12:56:22;20.88;;;8.27;;
49980;SDS011;35871;51.594;7.138;2024-01-25T13:01:23;20.77;;;7.75;;
49980;SDS011;35871;51.594;7.138;2024-01-25T13:06:26;25.92;;;10.40;;
49980;SDS011;35871;51.594;7.138;2024-01-25T13:11:27;19.40;;;7.32;;
49980;SDS011;35871;51.594;7.138;2024-01-25T13:16:28;19.27;;;8.23;;
49980;SDS011;35871;51.594;7.138;2024-01-25T13:21:30;22.77;;;9.45;;
49980;SDS011;35871;51.594;7.138;2024-01-25T13:26:32;15.75;;;7.18;;
49980;SDS011;35871;51.594;7.138;2024-01-25T13:31:33;12.13;;;5.47;;
49980;SDS011;35871;51.594;7.138;2024-01-25T13:41:35;10.70;;;4.63;;
49980;SDS011;35871;51.594;7.138;2024-01-25T13:46:43;15.85;;;5.93;;
49980;SDS011;35871;51.594;7.138;2024-01-25T13:52:05;11.45;;;5.30;;
49980;SDS011;35871;51.594;7.138;2024-01-25T13:57:07;16.80;;;6.18;;
49980;SDS011;35871;51.594;7.138;2024-01-25T14:02:09;18.42;;;6.35;;
49980;SDS011;35871;51.594;7.138;2024-01-25T14:07:15;11.80;;;4.72;;
49980;SDS011;35871;51.594;7.138;2024-01-25T14:12:49;22.27;;;8.40;;
49980;SDS011;35871;51.594;7.138;2024-01-25T14:18:41;17.38;;;5.88;;
49980;SDS011;35871;51.594;7.138;2024-01-25T14:24:09;20.35;;;6.70;;
49980;SDS011;35871;51.594;7.138;2024-01-25T14:29:10;15.45;;;6.38;;
49980;SDS011;35871;51.594;7.138;2024-01-25T14:34:15;14.93;;;5.43;;
49980;SDS011;35871;51.594;7.138;2024-01-25T14:39:45;15.13;;;6.47;;
49980;SDS011;35871;51.594;7.138;2024-01-25T14:44:53;14.38;;;5.50;;
49980;SDS011;35871;51.594;7.138;2024-01-25T14:50:05;13.65;;;5.55;;
49980;SDS011;35871;51.594;7.138;2024-01-25T14:55:21;11.40;;;5.30;;
49980;SDS011;35871;51.594;7.138;2024-01-25T15:00:41;10.65;;;4.28;;
49980;SDS011;35871;51.594;7.138;2024-01-25T15:05:47;13.00;;;5.80;;
49980;SDS011;35871;51.594;7.138;2024-01-25T15:11:22;15.02;;;7.07;;
49980;SDS011;35871;51.594;7.138;2024-01-25T15:22:05;25.13;;;9.68;;
49980;SDS011;35871;51.594;7.138;2024-01-25T15:27:07;16.27;;;6.07;;
49980;SDS011;35871;51.594;7.138;2024-01-25T15:32:09;14.65;;;7.00;;
49980;SDS011;35871;51.594;7.138;2024-01-25T15:42:27;28.73;;;11.30;;
49980;SDS011;35871;51.594;7.138;2024-01-25T15:47:31;17.30;;;6.82;;
49980;SDS011;35871;51.594;7.138;2024-01-25T15:52:32;18.73;;;8.85;;
49980;SDS011;35871;51.594;7.138;2024-01-25T15:57:33;29.60;;;10.70;;
49980;SDS011;35871;51.594;7.138;2024-01-25T16:02:41;38.40;;;16.58;;
49980;SDS011;35871;51.594;7.138;2024-01-25T16:07:42;24.50;;;9.13;;
49980;SDS011;35871;51.594;7.138;2024-01-25T16:17:45;27.67;;;10.73;;
49980;SDS011;35871;51.594;7.138;2024-01-25T16:22:51;27.45;;;10.57;;
49980;SDS011;35871;51.594;7.138;2024-01-25T16:27:54;26.42;;;10.75;;
49980;SDS011;35871;51.594;7.138;2024-01-25T16:32:55;30.60;;;10.52;;
49980;SDS011;35871;51.594;7.138;2024-01-25T16:37:59;25.90;;;9.60;;
49980;SDS011;35871;51.594;7.138;2024-01-25T16:48:01;26.88;;;9.68;;
49980;SDS011;35871;51.594;7.138;2024-01-25T16:53:02;19.27;;;7.88;;
49980;SDS011;35871;51.594;7.138;2024-01-25T16:58:04;27.58;;;11.57;;
49980;SDS011;35871;51.594;7.138;2024-01-25T17:08:06;24.60;;;9.02;;
49980;SDS011;35871;51.594;7.138;2024-01-25T17:18:08;12.82;;;5.22;;
49980;SDS011;35871;51.594;7.138;2024-01-25T17:28:09;19.45;;;7.88;;
49980;SDS011;35871;51.594;7.138;2024-01-25T17:33:11;23.42;;;9.57;;
49980;SDS011;35871;51.594;7.138;2024-01-25T17:43:13;18.48;;;7.07;;
49980;SDS011;35871;51.594;7.138;2024-01-25T17:53:15;13.73;;;6.15;;
49980;SDS011;35871;51.594;7.138;2024-01-25T17:58:16;15.73;;;6.38;;
49980;SDS011;35871;51.594;7.138;2024-01-25T18:08:19;23.23;;;8.85;;
49980;SDS011;35871;51.594;7.138;2024-01-25T18:18:21;19.50;;;7.47;;
49980;SDS011;35871;51.594;7.138;2024-01-25T18:28:23;16.17;;;6.55;;
49980;SDS011;35871;51.594;7.138;2024-01-25T18:33:24;15.05;;;5.70;;
49980;SDS011;35871;51.594;7.138;2024-01-25T18:43:26;14.82;;;5.30;;
49980;SDS011;35871;51.594;7.138;2024-01-25T18:53:29;13.90;;;5.60;;
49980;SDS011;35871;51.594;7.138;2024-01-25T18:58:30;15.70;;;5.53;;
49980;SDS011;35871;51.594;7.138;2024-01-25T19:03:31;19.27;;;7.35;;
49980;SDS011;35871;51.594;7.138;2024-01-25T19:08:32;12.27;;;4.82;;
49980;SDS011;35871;51.594;7.138;2024-01-25T19:18:34;13.85;;;5.50;;
49980;SDS011;35871;51.594;7.138;2024-01-25T19:28:36;18.52;;;7.05;;
49980;SDS011;35871;51.594;7.138;2024-01-25T19:33:38;14.25;;;5.75;;
49980;SDS011;35871;51.594;7.138;2024-01-25T19:43:42;10.25;;;4.47;;
49980;SDS011;35871;51.594;7.138;2024-01-25T19:48:43;18.73;;;6.90;;
49980;SDS011;35871;51.594;7.138;2024-01-25T19:58:45;10.80;;;4.18;;
49980;SDS011;35871;51.594;7.138;2024-01-25T20:03:46;9.77;;;4.50;;
